Time;durP1;ratioP1;P1;durP2;ratioP2;P2;SDS_P1;SDS_P2;PMS_P1;PMS_P2;Temp;Humidity;BMP_temperature;BMP_pressure;BME280_temperature;BME280_humidity;BME280_pressure;Samples;Min_cycle;Max_cycle;Signal;HPM_P1;HPM_P2
2021/05/15 00:00:56;;;;;;;;;;;21.60;56.50;;;;;;5129427;28;19915;-45
2021/05/15 00:03:22;;;;;;;;;;;21.60;56.50;;;;;;5135406;27;19910;-43
2021/05/15 00:05:48;;;;;;;;;;;21.60;56.60;;;;;;5136899;27;19908;-43
2021/05/15 00:08:14;;;;;;;;;;;21.60;56.10;;;;;;5138332;27;20632;-42
2021/05/15 00:10:40;;;;;;;;;;;21.60;56.10;;;;;;5109767;27;19914;-42
2021/05/15 00:13:05;;;;;;;;;;;21.50;55.60;;;;;;5131157;27;20369;-42
2021/05/15 00:15:31;;;;;;;;;;;21.50;55.40;;;;;;5136659;27;19922;-42
2021/05/15 00:17:57;;;;;;;;;;;21.50;55.50;;;;;;5130839;27;19904;-42
2021/05/15 00:20:23;;;;;;;;;;;21.50;55.40;;;;;;5135127;27;19907;-42
2021/05/15 00:22:49;;;;;;;;;;;21.50;55.50;;;;;;5144671;27;19903;-43
2021/05/15 00:25:16;;;;;;;;;;;21.50;55.60;;;;;;5138488;27;19952;-42
2021/05/15 00:27:41;;;;;;;;;;;21.50;55.40;;;;;;5134268;27;19915;-42
2021/05/15 00:30:08;;;;;;;;;;;21.50;55.40;;;;;;5134574;27;19938;-42
2021/05/15 00:32:34;;;;;;;;;;;21.50;56.40;;;;;;5146761;27;19903;-42
2021/05/15 00:35:00;;;;;;;;;;;21.40;56.70;;;;;;5132551;27;19907;-42
2021/05/15 00:37:26;;;;;;;;;;;21.40;56.90;;;;;;5140111;27;19907;-42
2021/05/15 00:39:52;;;;;;;;;;;21.40;56.90;;;;;;5138750;27;19903;-39
2021/05/15 00:42:18;;;;;;;;;;;21.40;56.80;;;;;;5134341;27;19911;-47
2021/05/15 00:44:45;;;;;;;;;;;21.40;56.60;;;;;;5143539;27;19946;-42
2021/05/15 00:47:17;;;;;;;;;;;21.40;56.70;;;;;;5138537;27;19919;-42
2021/05/15 00:49:44;;;;;;;;;;;21.30;56.90;;;;;;5135583;27;19950;-42
2021/05/15 00:52:10;;;;;;;;;;;21.30;56.70;;;;;;5135749;27;19911;-42
2021/05/15 00:54:37;;;;;;;;;;;21.30;57.10;;;;;;5136193;27;19907;-42
2021/05/15 00:57:03;;;;;;;;;;;21.30;57.10;;;;;;5136234;27;20031;-42
2021/05/15 00:59:29;;;;;;;;;;;21.30;56.70;;;;;;5145823;27;19903;-42
2021/05/15 01:01:55;;;;;;;;;;;21.20;56.60;;;;;;5126129;27;19907;-42
2021/05/15 01:04:21;;;;;;;;;;;21.20;56.80;;;;;;5138494;27;19907;-42
2021/05/15 01:06:46;;;;;;;;;;;21.20;56.90;;;;;;5137516;27;19980;-42
2021/05/15 01:09:12;;;;;;;;;;;21.20;56.60;;;;;;5140585;27;19916;-43
2021/05/15 01:11:38;;;;;;;;;;;21.20;56.80;;;;;;5135681;27;19908;-42
2021/05/15 01:14:04;;;;;;;;;;;21.20;56.90;;;;;;5140713;27;19915;-42
2021/05/15 01:16:31;;;;;;;;;;;21.20;56.80;;;;;;5129201;27;19914;-42
2021/05/15 01:18:57;;;;;;;;;;;21.20;56.80;;;;;;5134566;27;20431;-41
2021/05/15 01:21:23;;;;;;;;;;;21.10;57.00;;;;;;5132947;27;19908;-42
2021/05/15 01:23:49;;;;;;;;;;;21.10;57.00;;;;;;5136854;27;19903;-42
2021/05/15 01:26:18;;;;;;;;;;;21.10;57.30;;;;;;5133422;27;19907;-42
2021/05/15 01:28:44;;;;;;;;;;;21.10;57.30;;;;;;5137417;27;19975;-42
2021/05/15 01:31:11;;;;;;;;;;;21.10;57.40;;;;;;5135984;27;19908;-42
2021/05/15 01:33:36;;;;;;;;;;;21.00;57.30;;;;;;5138568;27;19967;-42
2021/05/15 01:36:03;;;;;;;;;;;21.00;57.20;;;;;;5133239;27;19919;-42
2021/05/15 01:38:29;;;;;;;;;;;21.00;57.20;;;;;;5139505;27;19943;-42
2021/05/15 01:41:00;;;;;;;;;;;21.00;57.10;;;;;;5136939;27;19933;-42
2021/05/15 01:43:25;;;;;;;;;;;20.90;57.00;;;;;;5140865;27;19910;-42
2021/05/15 01:45:52;;;;;;;;;;;20.90;57.40;;;;;;5137137;27;20543;-42
2021/05/15 01:48:17;;;;;;;;;;;20.90;57.10;;;;;;5138512;27;19940;-42
2021/05/15 01:51:04;;;;;;;;;;;20.90;56.90;;;;;;5133998;27;19911;-42
2021/05/15 01:53:30;;;;;;;;;;;20.90;57.10;;;;;;5136427;27;19914;-42
2021/05/15 01:55:57;;;;;;;;;;;20.90;56.60;;;;;;5138560;27;19907;-42
2021/05/15 01:58:23;;;;;;;;;;;20.90;56.70;;;;;;5137770;27;19907;-42
2021/05/15 02:00:49;;;;;;;;;;;20.90;56.70;;;;;;5142027;27;19911;-42
2021/05/15 02:03:15;;;;;;;;;;;20.90;56.10;;;;;;5134015;27;19907;-42
2021/05/15 02:05:41;;;;;;;;;;;20.80;56.00;;;;;;5136527;27;19907;-42
2021/05/15 02:08:08;;;;;;;;;;;20.80;55.90;;;;;;5129015;27;19918;-42
2021/05/15 02:10:34;;;;;;;;;;;20.80;56.00;;;;;;5133066;27;19908;-42
2021/05/15 02:12:59;;;;;;;;;;;20.80;55.90;;;;;;5133792;27;19928;-40
2021/05/15 02:15:26;;;;;;;;;;;20.70;56.30;;;;;;5133040;27;19915;-46
2021/05/15 02:17:52;;;;;;;;;;;20.70;56.20;;;;;;5138588;27;19910;-42
2021/05/15 02:20:18;;;;;;;;;;;20.70;56.20;;;;;;5132584;27;19907;-45
2021/05/15 02:22:43;;;;;;;;;;;20.70;56.40;;;;;;5132254;27;19908;-42
2021/05/15 02:25:10;;;;;;;;;;;20.60;56.40;;;;;;5136668;27;19904;-42
2021/05/15 02:27:36;;;;;;;;;;;20.60;56.50;;;;;;5114830;28;20011;-42
2021/05/15 02:30:02;;;;;;;;;;;20.60;56.60;;;;;;5121267;27;19904;-41
2021/05/15 02:32:28;;;;;;;;;;;20.60;57.20;;;;;;5132422;27;19922;-42
2021/05/15 02:34:54;;;;;;;;;;;20.60;56.50;;;;;;5134902;27;19913;-42
2021/05/15 02:37:19;;;;;;;;;;;20.60;56.50;;;;;;5131991;27;19903;-42
2021/05/15 02:39:45;;;;;;;;;;;20.60;56.30;;;;;;5135725;27;19907;-43
2021/05/15 02:42:12;;;;;;;;;;;20.50;56.30;;;;;;5132093;27;19914;-39
2021/05/15 02:44:38;;;;;;;;;;;20.50;56.30;;;;;;5130940;27;19928;-42
2021/05/15 02:47:04;;;;;;;;;;;20.50;56.30;;;;;;5137810;27;19971;-42
2021/05/15 02:49:30;;;;;;;;;;;20.40;56.20;;;;;;5133827;27;19908;-42
2021/05/15 02:51:56;;;;;;;;;;;20.40;56.80;;;;;;5138609;27;19907;-44
2021/05/15 02:54:22;;;;;;;;;;;20.40;56.20;;;;;;5127899;27;19926;-43
2021/05/15 02:56:49;;;;;;;;;;;20.40;56.20;;;;;;5128346;27;19950;-42
2021/05/15 02:59:15;;;;;;;;;;;20.40;56.30;;;;;;5130841;27;19911;-42
2021/05/15 03:01:41;;;;;;;;;;;20.40;56.30;;;;;;5130494;27;19911;-42
2021/05/15 03:04:07;;;;;;;;;;;20.30;56.30;;;;;;5131156;27;19903;-42
2021/05/15 03:06:33;;;;;;;;;;;20.30;56.40;;;;;;5129916;27;19911;-42
2021/05/15 03:08:58;;;;;;;;;;;20.30;56.40;;;;;;5135025;27;19933;-42
2021/05/15 03:11:24;;;;;;;;;;;20.30;56.40;;;;;;5126800;27;19903;-42
2021/05/15 03:13:50;;;;;;;;;;;20.20;56.40;;;;;;5111540;28;19916;-41
2021/05/15 03:16:16;;;;;;;;;;;20.20;56.50;;;;;;5109195;28;19912;-42
2021/05/15 03:18:42;;;;;;;;;;;20.20;56.50;;;;;;5133382;27;19913;-42
2021/05/15 03:21:08;;;;;;;;;;;20.20;56.50;;;;;;5129357;27;20391;-42
2021/05/15 03:23:34;;;;;;;;;;;20.20;56.60;;;;;;5132680;27;19949;-42
2021/05/15 03:26:00;;;;;;;;;;;20.10;56.60;;;;;;5112852;28;19908;-42
2021/05/15 03:28:25;;;;;;;;;;;20.10;56.70;;;;;;5131005;27;20439;-42
2021/05/15 03:30:51;;;;;;;;;;;20.10;56.60;;;;;;5132116;27;19904;-42
2021/05/15 03:33:17;;;;;;;;;;;20.10;56.70;;;;;;5131234;27;19908;-41
2021/05/15 03:35:43;;;;;;;;;;;20.10;56.80;;;;;;5133654;28;19911;-42
2021/05/15 03:38:09;;;;;;;;;;;20.00;56.80;;;;;;5137623;27;19912;-42
2021/05/15 03:40:36;;;;;;;;;;;20.00;56.90;;;;;;5139332;27;19907;-42
2021/05/15 03:43:02;;;;;;;;;;;20.00;56.80;;;;;;5142981;27;19962;-43
2021/05/15 03:45:28;;;;;;;;;;;20.00;56.80;;;;;;5138460;27;20372;-43
2021/05/15 03:47:54;;;;;;;;;;;20.00;56.90;;;;;;5145057;27;19922;-42
2021/05/15 03:50:22;;;;;;;;;;;20.00;56.90;;;;;;5137635;27;19908;-42
2021/05/15 03:52:48;;;;;;;;;;;20.00;57.00;;;;;;5146073;27;19970;-42
2021/05/15 03:55:14;;;;;;;;;;;19.90;56.90;;;;;;5145227;27;19910;-42
2021/05/15 03:57:40;;;;;;;;;;;19.90;57.00;;;;;;5138499;27;19912;-43
2021/05/15 04:00:09;;;;;;;;;;;19.90;57.00;;;;;;5142607;27;19911;-41
2021/05/15 04:02:35;;;;;;;;;;;19.90;57.10;;;;;;5142072;27;19907;-41
2021/05/15 04:05:01;;;;;;;;;;;19.90;57.10;;;;;;5141382;27;19907;-42
2021/05/15 04:07:27;;;;;;;;;;;19.80;57.10;;;;;;5136514;27;19950;-42
2021/05/15 04:09:53;;;;;;;;;;;19.80;57.10;;;;;;5135733;27;19919;-42
2021/05/15 04:12:19;;;;;;;;;;;19.80;57.20;;;;;;5134465;27;19910;-42
2021/05/15 04:14:49;;;;;;;;;;;19.80;57.20;;;;;;5141558;27;19919;-42
2021/05/15 04:17:27;;;;;;;;;;;19.80;57.30;;;;;;5129778;27;19929;-42
2021/05/15 04:19:53;;;;;;;;;;;19.70;57.30;;;;;;5140061;27;19911;-43
2021/05/15 04:22:19;;;;;;;;;;;19.70;57.30;;;;;;5138761;27;19908;-43
2021/05/15 04:24:45;;;;;;;;;;;19.70;57.30;;;;;;5137339;27;20006;-42
2021/05/15 04:27:12;;;;;;;;;;;19.70;57.40;;;;;;5137679;27;19903;-42
2021/05/15 04:29:38;;;;;;;;;;;19.70;57.40;;;;;;5137801;27;19912;-42
2021/05/15 04:32:04;;;;;;;;;;;19.60;57.50;;;;;;5131195;27;19974;-42
2021/05/15 04:34:30;;;;;;;;;;;19.60;57.40;;;;;;5140273;27;19915;-42
2021/05/15 04:36:59;;;;;;;;;;;19.60;57.50;;;;;;5141238;27;19903;-41
2021/05/15 04:39:28;;;;;;;;;;;19.60;57.50;;;;;;5140972;27;20031;-42
2021/05/15 04:41:56;;;;;;;;;;;19.60;57.50;;;;;;5138910;27;19903;-42
2021/05/15 04:44:22;;;;;;;;;;;19.50;57.50;;;;;;5140676;27;19904;-41
2021/05/15 04:46:49;;;;;;;;;;;19.50;57.60;;;;;;5138223;27;19907;-43
2021/05/15 04:49:15;;;;;;;;;;;19.50;57.60;;;;;;5122532;28;19937;-42
2021/05/15 04:51:41;;;;;;;;;;;19.50;57.70;;;;;;5139345;27;19907;-42
2021/05/15 04:54:07;;;;;;;;;;;19.50;57.70;;;;;;5135792;27;19911;-42
2021/05/15 04:56:33;;;;;;;;;;;19.50;57.80;;;;;;5136316;27;19912;-42
2021/05/15 04:58:59;;;;;;;;;;;19.40;57.80;;;;;;5141445;27;19910;-42
2021/05/15 05:01:25;;;;;;;;;;;19.40;57.80;;;;;;5134656;27;19931;-42
2021/05/15 05:03:51;;;;;;;;;;;19.40;57.90;;;;;;5138728;27;19907;-45
2021/05/15 05:06:16;;;;;;;;;;;19.40;57.90;;;;;;5132614;27;19939;-41
2021/05/15 05:08:42;;;;;;;;;;;19.30;57.90;;;;;;5136891;27;19919;-42
2021/05/15 05:11:08;;;;;;;;;;;19.30;57.90;;;;;;5137267;27;20439;-41
2021/05/15 05:13:34;;;;;;;;;;;19.30;57.90;;;;;;5131472;27;19913;-42
2021/05/15 05:16:00;;;;;;;;;;;19.30;58.10;;;;;;5132858;27;19919;-46
2021/05/15 05:18:26;;;;;;;;;;;19.30;58.10;;;;;;5129766;27;19907;-43
2021/05/15 05:20:52;;;;;;;;;;;19.30;58.10;;;;;;5134384;27;19914;-42
2021/05/15 05:23:18;;;;;;;;;;;19.20;58.10;;;;;;5134380;27;19908;-41
2021/05/15 05:25:44;;;;;;;;;;;19.20;58.10;;;;;;5134309;27;19914;-43
2021/05/15 05:28:10;;;;;;;;;;;19.20;58.20;;;;;;5133625;27;19976;-42
2021/05/15 05:30:36;;;;;;;;;;;19.20;58.20;;;;;;5130926;27;19904;-42
2021/05/15 05:33:02;;;;;;;;;;;19.20;58.30;;;;;;5140568;27;19925;-42
2021/05/15 05:35:28;;;;;;;;;;;19.10;58.20;;;;;;5138253;27;19910;-42
2021/05/15 05:37:54;;;;;;;;;;;19.10;58.30;;;;;;5131764;27;19953;-42
2021/05/15 05:40:20;;;;;;;;;;;19.10;58.40;;;;;;5136833;27;19911;-42
2021/05/15 05:42:46;;;;;;;;;;;19.10;58.40;;;;;;5132648;27;19910;-42
2021/05/15 05:45:14;;;;;;;;;;;19.10;58.40;;;;;;5135527;27;19908;-42
2021/05/15 05:47:40;;;;;;;;;;;19.10;58.50;;;;;;5133306;27;19917;-42
2021/05/15 05:50:06;;;;;;;;;;;19.00;58.50;;;;;;5140641;27;19980;-42
2021/05/15 05:52:32;;;;;;;;;;;19.00;58.50;;;;;;5133297;27;19963;-41
2021/05/15 05:54:58;;;;;;;;;;;19.00;58.50;;;;;;5133795;27;19914;-42
2021/05/15 05:57:24;;;;;;;;;;;19.00;58.50;;;;;;5136395;27;20410;-42
2021/05/15 05:59:49;;;;;;;;;;;19.00;58.60;;;;;;5130944;27;19922;-42
2021/05/15 06:02:15;;;;;;;;;;;19.00;58.60;;;;;;5136552;27;19903;-42
2021/05/15 06:04:41;;;;;;;;;;;18.90;58.50;;;;;;5126090;27;19907;-42
2021/05/15 06:07:08;;;;;;;;;;;18.90;58.60;;;;;;5132936;27;20244;-43
2021/05/15 06:09:34;;;;;;;;;;;18.90;58.70;;;;;;5136451;27;19922;-42
2021/05/15 06:12:00;;;;;;;;;;;18.90;58.60;;;;;;5127995;27;19907;-42
2021/05/15 06:14:26;;;;;;;;;;;18.90;58.70;;;;;;5133838;27;19969;-43
2021/05/15 06:16:52;;;;;;;;;;;18.90;58.70;;;;;;5134996;27;19903;-43
2021/05/15 06:19:18;;;;;;;;;;;18.90;58.70;;;;;;5130607;27;19907;-42
2021/05/15 06:21:44;;;;;;;;;;;18.80;58.80;;;;;;5133360;27;19908;-42
2021/05/15 06:24:10;;;;;;;;;;;18.80;58.80;;;;;;5132451;27;19908;-42
2021/05/15 06:26:36;;;;;;;;;;;18.80;58.80;;;;;;5137211;27;19960;-42
2021/05/15 06:29:02;;;;;;;;;;;18.80;58.90;;;;;;5136827;27;20002;-42
2021/05/15 06:31:28;;;;;;;;;;;18.80;58.90;;;;;;5132771;27;19947;-42
2021/05/15 06:33:54;;;;;;;;;;;18.70;58.90;;;;;;5127696;27;19915;-42
2021/05/15 06:36:20;;;;;;;;;;;18.70;58.90;;;;;;5127612;27;19911;-42
2021/05/15 06:38:46;;;;;;;;;;;18.70;59.00;;;;;;5136115;27;19903;-42
2021/05/15 06:41:12;;;;;;;;;;;18.70;59.00;;;;;;5131645;27;19908;-42
2021/05/15 06:43:37;;;;;;;;;;;18.70;59.10;;;;;;5127521;27;19932;-42
2021/05/15 06:46:03;;;;;;;;;;;18.60;59.00;;;;;;5129263;27;19933;-42
2021/05/15 06:48:29;;;;;;;;;;;18.60;59.60;;;;;;5138115;27;19915;-42
2021/05/15 06:50:55;;;;;;;;;;;18.60;59.10;;;;;;5130293;27;19907;-42
2021/05/15 06:53:21;;;;;;;;;;;18.60;59.20;;;;;;5132430;27;20606;-42
2021/05/15 06:55:47;;;;;;;;;;;18.60;59.20;;;;;;5132570;27;19911;-42
2021/05/15 06:58:14;;;;;;;;;;;18.60;59.30;;;;;;5127309;27;19915;-42
2021/05/15 07:00:40;;;;;;;;;;;18.60;59.30;;;;;;5138833;27;19968;-42
2021/05/15 07:03:06;;;;;;;;;;;18.50;59.30;;;;;;5106744;28;19914;-42
2021/05/15 07:05:33;;;;;;;;;;;18.50;59.30;;;;;;5134132;27;19904;-42
2021/05/15 07:07:59;;;;;;;;;;;18.50;59.40;;;;;;5129993;27;19926;-42
2021/05/15 07:10:25;;;;;;;;;;;18.50;59.40;;;;;;5129653;27;19911;-41
2021/05/15 07:12:51;;;;;;;;;;;18.50;59.40;;;;;;5130937;27;19910;-42
2021/05/15 07:15:17;;;;;;;;;;;18.50;59.40;;;;;;5131972;27;20708;-42
2021/05/15 07:17:43;;;;;;;;;;;18.40;59.50;;;;;;5138032;27;19912;-42
2021/05/15 07:20:09;;;;;;;;;;;18.40;59.50;;;;;;5128618;27;20365;-42
2021/05/15 07:22:35;;;;;;;;;;;18.40;59.50;;;;;;5131669;27;19939;-42
2021/05/15 07:25:01;;;;;;;;;;;18.40;59.50;;;;;;5136440;27;19903;-42
2021/05/15 07:27:28;;;;;;;;;;;18.40;59.60;;;;;;5127735;28;19980;-42
2021/05/15 07:29:54;;;;;;;;;;;18.40;59.60;;;;;;5131884;27;20468;-42
2021/05/15 07:32:21;;;;;;;;;;;18.40;59.60;;;;;;5131493;27;20696;-42
2021/05/15 07:34:47;;;;;;;;;;;18.30;59.70;;;;;;5134774;27;19911;-42
2021/05/15 07:37:13;;;;;;;;;;;18.30;59.70;;;;;;5114767;28;19910;-42
2021/05/15 07:39:39;;;;;;;;;;;18.30;59.80;;;;;;5112152;28;19903;-42
2021/05/15 07:42:06;;;;;;;;;;;18.30;59.80;;;;;;5130638;28;19907;-42
2021/05/15 07:44:31;;;;;;;;;;;18.30;59.80;;;;;;5131920;28;19910;-42
2021/05/15 07:46:57;;;;;;;;;;;18.20;59.80;;;;;;5135763;28;19904;-42
2021/05/15 07:49:23;;;;;;;;;;;18.20;59.80;;;;;;5136973;28;19919;-42
2021/05/15 07:51:50;;;;;;;;;;;18.20;59.90;;;;;;5130902;28;19931;-42
2021/05/15 07:54:16;;;;;;;;;;;18.20;60.00;;;;;;5133019;28;19904;-42
2021/05/15 07:56:42;;;;;;;;;;;18.20;60.00;;;;;;5132435;28;19907;-42
2021/05/15 07:59:08;;;;;;;;;;;18.20;60.00;;;;;;5136835;28;19983;-41
2021/05/15 08:01:34;;;;;;;;;;;18.20;60.10;;;;;;5133486;28;19912;-43
2021/05/15 08:03:59;;;;;;;;;;;18.10;60.00;;;;;;5131574;28;19998;-42
2021/05/15 08:06:25;;;;;;;;;;;18.10;60.00;;;;;;5134520;28;19908;-42
2021/05/15 08:08:51;;;;;;;;;;;18.10;60.10;;;;;;5137114;28;19912;-41
2021/05/15 08:11:18;;;;;;;;;;;18.10;60.10;;;;;;5135289;28;20014;-41
2021/05/15 08:13:44;;;;;;;;;;;18.10;60.10;;;;;;5134006;28;19915;-42
2021/05/15 08:16:12;;;;;;;;;;;18.10;60.20;;;;;;5134878;28;19931;-42
2021/05/15 08:18:38;;;;;;;;;;;18.10;60.20;;;;;;5133970;28;19914;-42
2021/05/15 08:21:04;;;;;;;;;;;18.00;60.30;;;;;;5134519;28;19903;-42
2021/05/15 08:23:35;;;;;;;;;;;18.00;60.30;;;;;;5134863;28;20287;-42
2021/05/15 08:26:04;;;;;;;;;;;18.00;60.30;;;;;;5126488;27;19994;-42
2021/05/15 08:28:30;;;;;;;;;;;18.00;60.40;;;;;;5135402;27;19916;-42
2021/05/15 08:30:56;;;;;;;;;;;18.00;60.40;;;;;;5138918;27;19903;-42
2021/05/15 08:33:22;;;;;;;;;;;18.00;60.40;;;;;;5131064;27;20408;-42
2021/05/15 08:35:49;;;;;;;;;;;17.90;60.50;;;;;;5136028;27;19908;-43
2021/05/15 08:38:15;;;;;;;;;;;17.90;60.60;;;;;;5138329;27;19908;-42
2021/05/15 08:40:41;;;;;;;;;;;17.90;60.50;;;;;;5142644;27;19925;-42
2021/05/15 08:43:07;;;;;;;;;;;17.90;60.60;;;;;;5134845;27;20473;-42
2021/05/15 08:45:33;;;;;;;;;;;17.90;60.60;;;;;;5133607;27;19908;-42
2021/05/15 08:47:59;;;;;;;;;;;17.90;60.70;;;;;;5136207;27;19922;-42
2021/05/15 08:50:26;;;;;;;;;;;17.90;60.70;;;;;;5134334;27;19907;-43
2021/05/15 08:52:52;;;;;;;;;;;17.80;60.80;;;;;;5134744;27;19939;-42
2021/05/15 08:55:22;;;;;;;;;;;17.80;60.80;;;;;;5135062;27;19913;-42
2021/05/15 08:57:48;;;;;;;;;;;17.80;60.90;;;;;;5135725;27;19907;-42
2021/05/15 09:00:16;;;;;;;;;;;17.80;60.90;;;;;;5133961;27;19991;-42
2021/05/15 09:02:42;;;;;;;;;;;17.80;60.90;;;;;;5135300;27;19914;-42
2021/05/15 09:05:08;;;;;;;;;;;17.80;60.90;;;;;;5134566;27;20394;-42
2021/05/15 09:07:34;;;;;;;;;;;17.70;60.90;;;;;;5134202;27;19938;-42
2021/05/15 09:10:00;;;;;;;;;;;17.70;60.90;;;;;;5118959;27;19919;-42
2021/05/15 09:12:26;;;;;;;;;;;17.70;60.90;;;;;;5138411;27;19903;-42
2021/05/15 09:14:58;;;;;;;;;;;17.70;60.90;;;;;;5138672;27;19963;-42
2021/05/15 09:17:24;;;;;;;;;;;17.70;61.00;;;;;;5135281;27;19908;-42
2021/05/15 09:19:52;;;;;;;;;;;17.70;61.00;;;;;;5134397;27;19986;-42
2021/05/15 09:22:18;;;;;;;;;;;17.70;61.10;;;;;;5137252;27;19907;-42
2021/05/15 09:24:44;;;;;;;;;;;17.60;61.20;;;;;;5134206;27;20360;-42
2021/05/15 09:27:12;;;;;;;;;;;17.60;61.20;;;;;;5130013;27;19907;-42
2021/05/15 09:29:44;;;;;;;;;;;17.60;61.20;;;;;;5131879;27;19978;-42
2021/05/15 09:32:10;;;;;;;;;;;17.60;61.20;;;;;;5134585;27;19907;-42
2021/05/15 09:34:49;;;;;;;;;;;17.60;61.30;;;;;;5134060;27;19907;-42
2021/05/15 09:37:31;;;;;;;;;;;17.60;61.40;;;;;;5137103;27;19922;-43
2021/05/15 09:39:57;;;;;;;;;;;17.60;61.50;;;;;;5134171;27;19907;-41
2021/05/15 09:42:23;;;;;;;;;;;17.60;61.50;;;;;;5137130;27;19982;-41
2021/05/15 09:44:49;;;;;;;;;;;17.50;61.40;;;;;;5134189;27;19910;-42
2021/05/15 09:47:17;;;;;;;;;;;17.50;61.40;;;;;;5133882;27;19915;-42
2021/05/15 09:49:43;;;;;;;;;;;17.50;61.50;;;;;;5132936;27;19918;-42
2021/05/15 09:52:10;;;;;;;;;;;17.50;61.50;;;;;;5135308;27;19907;-42
2021/05/15 09:54:36;;;;;;;;;;;17.50;61.50;;;;;;5130478;27;19910;-43
2021/05/15 09:57:06;;;;;;;;;;;17.50;61.50;;;;;;5133069;27;19927;-42
2021/05/15 09:59:33;;;;;;;;;;;17.50;61.60;;;;;;5133122;27;19904;-42
2021/05/15 10:02:00;;;;;;;;;;;17.50;61.60;;;;;;5138375;27;19907;-42
2021/05/15 10:04:26;;;;;;;;;;;17.50;61.60;;;;;;5137823;27;19911;-42
2021/05/15 10:06:52;;;;;;;;;;;17.40;61.60;;;;;;5135954;27;20048;-43
2021/05/15 10:09:44;;;;;;;;;;;17.40;61.70;;;;;;5131484;27;19916;-42
2021/05/15 10:12:10;;;;;;;;;;;17.40;61.70;;;;;;5128991;27;19908;-42
2021/05/15 10:14:36;;;;;;;;;;;17.40;61.80;;;;;;5135144;27;19973;-42
2021/05/15 10:17:02;;;;;;;;;;;17.40;61.90;;;;;;5132845;27;19929;-42
2021/05/15 10:19:28;;;;;;;;;;;17.40;61.90;;;;;;5135435;27;20283;-42
2021/05/15 10:21:55;;;;;;;;;;;17.40;61.90;;;;;;5136100;27;20404;-42
2021/05/15 10:24:22;;;;;;;;;;;17.40;61.90;;;;;;5134285;27;19922;-42
2021/05/15 10:27:04;;;;;;;;;;;17.30;62.00;;;;;;5134648;27;19981;-42
2021/05/15 10:29:39;;;;;;;;;;;17.30;62.10;;;;;;5136472;27;19915;-42
2021/05/15 10:32:08;;;;;;;;;;;17.30;62.10;;;;;;5132247;27;19938;-42
2021/05/15 10:34:34;;;;;;;;;;;17.30;62.10;;;;;;5128841;27;19912;-42
2021/05/15 10:37:01;;;;;;;;;;;17.20;62.10;;;;;;5135602;27;19925;-42
2021/05/15 10:39:34;;;;;;;;;;;17.20;62.10;;;;;;5133686;27;19911;-42
2021/05/15 10:42:03;;;;;;;;;;;17.20;62.10;;;;;;5132088;27;19914;-42
2021/05/15 10:44:39;;;;;;;;;;;17.20;62.10;;;;;;5135059;27;19907;-42
2021/05/15 10:47:04;;;;;;;;;;;17.20;62.20;;;;;;5132684;27;19908;-41
2021/05/15 10:49:30;;;;;;;;;;;17.20;62.10;;;;;;5115922;27;19911;-42
2021/05/15 10:52:09;;;;;;;;;;;17.20;62.90;;;;;;5134984;27;19904;-42
2021/05/15 10:54:46;;;;;;;;;;;17.20;62.20;;;;;;5128678;27;19907;-43
2021/05/15 10:57:13;;;;;;;;;;;17.20;62.10;;;;;;5114168;28;19929;-42
2021/05/15 10:59:40;;;;;;;;;;;17.20;62.30;;;;;;5136870;27;19908;-42
2021/05/15 11:02:14;;;;;;;;;;;17.20;62.40;;;;;;5134697;27;19914;-42
2021/05/15 11:04:50;;;;;;;;;;;17.10;62.30;;;;;;5109854;28;19907;-44
2021/05/15 11:07:16;;;;;;;;;;;17.20;62.40;;;;;;5132121;27;19911;-42
2021/05/15 11:09:52;;;;;;;;;;;17.10;62.30;;;;;;5108848;28;19915;-42
2021/05/15 11:12:19;;;;;;;;;;;17.10;62.30;;;;;;5128446;27;19929;-43
2021/05/15 11:14:45;;;;;;;;;;;17.10;62.40;;;;;;5131040;27;19919;-41
2021/05/15 11:17:17;;;;;;;;;;;17.10;62.40;;;;;;5132214;27;19903;-42
2021/05/15 11:19:59;;;;;;;;;;;17.10;62.50;;;;;;5131805;27;19911;-42
2021/05/15 11:22:37;;;;;;;;;;;17.00;62.50;;;;;;5128939;27;20002;-42
2021/05/15 11:25:06;;;;;;;;;;;17.00;62.60;;;;;;5133979;27;19915;-42
2021/05/15 11:27:32;;;;;;;;;;;17.00;62.60;;;;;;5133913;27;19934;-42
2021/05/15 11:30:05;;;;;;;;;;;17.10;62.60;;;;;;5137179;28;20284;-43
2021/05/15 11:32:30;;;;;;;;;;;17.00;62.60;;;;;;5134093;27;19927;-42
2021/05/15 11:34:56;;;;;;;;;;;17.00;62.60;;;;;;5132306;27;19930;-42
2021/05/15 11:37:22;;;;;;;;;;;17.00;62.60;;;;;;5134147;28;20440;-42
2021/05/15 11:39:52;;;;;;;;;;;17.00;62.60;;;;;;5140303;28;19907;-44
2021/05/15 11:42:18;;;;;;;;;;;17.00;62.70;;;;;;5131176;28;19915;-42
2021/05/15 11:44:46;;;;;;;;;;;16.90;62.60;;;;;;5140209;28;19907;-42
2021/05/15 11:47:12;;;;;;;;;;;16.90;62.60;;;;;;5111289;28;20431;-43
2021/05/15 11:49:38;;;;;;;;;;;16.90;62.60;;;;;;5131705;28;19929;-42
2021/05/15 11:52:05;;;;;;;;;;;16.90;62.80;;;;;;5135315;28;19912;-42
2021/05/15 11:54:31;;;;;;;;;;;16.90;62.70;;;;;;5132914;28;19904;-42
2021/05/15 11:56:57;;;;;;;;;;;16.90;62.80;;;;;;5140113;28;19915;-42
2021/05/15 11:59:23;;;;;;;;;;;16.90;62.80;;;;;;5133276;27;20287;-42
2021/05/15 12:01:49;;;;;;;;;;;16.90;62.80;;;;;;5136464;27;19912;-42
2021/05/15 12:04:25;;;;;;;;;;;16.90;62.90;;;;;;5133716;27;19908;-42
2021/05/15 12:07:00;;;;;;;;;;;16.90;62.90;;;;;;5136170;27;20018;-42
2021/05/15 12:09:27;;;;;;;;;;;16.90;62.90;;;;;;5138182;27;19933;-42
2021/05/15 12:11:57;;;;;;;;;;;16.90;63.10;;;;;;5116391;27;19903;-42
2021/05/15 12:14:23;;;;;;;;;;;16.90;63.00;;;;;;5137291;27;19934;-42
2021/05/15 12:16:48;;;;;;;;;;;16.90;63.10;;;;;;5137704;27;19917;-42
2021/05/15 12:19:18;;;;;;;;;;;16.90;63.10;;;;;;5141664;27;19907;-42
2021/05/15 12:21:53;;;;;;;;;;;16.80;63.00;;;;;;5140839;27;20591;-42
2021/05/15 12:24:19;;;;;;;;;;;16.80;63.00;;;;;;5139683;27;19904;-41
2021/05/15 12:26:45;;;;;;;;;;;16.80;63.00;;;;;;5137441;27;19933;-42
2021/05/15 12:29:11;;;;;;;;;;;16.80;63.00;;;;;;5127799;27;19912;-42
2021/05/15 12:31:37;;;;;;;;;;;16.80;63.00;;;;;;5134453;27;19933;-42
2021/05/15 12:34:06;;;;;;;;;;;16.80;62.90;;;;;;5134491;27;19908;-42
2021/05/15 12:36:32;;;;;;;;;;;16.80;63.00;;;;;;5134279;27;19963;-41
2021/05/15 12:38:58;;;;;;;;;;;16.80;63.00;;;;;;5135262;27;19911;-41
2021/05/15 12:41:32;;;;;;;;;;;16.80;63.00;;;;;;5136161;27;19930;-42
2021/05/15 12:44:03;;;;;;;;;;;16.80;63.00;;;;;;5138709;27;19903;-42
2021/05/15 12:46:30;;;;;;;;;;;16.80;63.00;;;;;;5134890;27;19913;-41
2021/05/15 12:48:59;;;;;;;;;;;16.80;63.00;;;;;;5114451;27;19922;-41
2021/05/15 12:51:29;;;;;;;;;;;16.80;63.00;;;;;;5133632;27;19907;-42
2021/05/15 12:53:55;;;;;;;;;;;16.90;63.00;;;;;;5118905;27;19964;-42
2021/05/15 12:56:28;;;;;;;;;;;16.90;63.00;;;;;;5134986;27;19907;-41
2021/05/15 12:58:54;;;;;;;;;;;16.90;63.00;;;;;;5136587;27;19912;-42
2021/05/15 13:01:21;;;;;;;;;;;16.90;63.00;;;;;;5129025;27;19907;-42
2021/05/15 13:03:48;;;;;;;;;;;16.90;62.90;;;;;;5134489;27;19935;-42
2021/05/15 13:06:14;;;;;;;;;;;16.90;63.00;;;;;;5142275;27;20404;-42
2021/05/15 13:08:40;;;;;;;;;;;16.90;62.90;;;;;;5137057;27;19922;-42
2021/05/15 13:11:09;;;;;;;;;;;16.90;62.90;;;;;;5139559;27;19907;-41
2021/05/15 13:13:35;;;;;;;;;;;16.90;62.70;;;;;;5134644;27;19958;-42
2021/05/15 13:16:02;;;;;;;;;;;17.00;62.60;;;;;;5136075;27;19904;-41
2021/05/15 13:18:28;;;;;;;;;;;16.90;62.60;;;;;;5137901;27;19907;-42
2021/05/15 13:20:54;;;;;;;;;;;17.00;62.60;;;;;;5137037;27;19922;-41
2021/05/15 13:23:20;;;;;;;;;;;17.00;62.60;;;;;;5135028;27;19908;-41
2021/05/15 13:25:46;;;;;;;;;;;17.00;62.60;;;;;;5129941;27;20042;-42
2021/05/15 13:28:11;;;;;;;;;;;17.00;62.60;;;;;;5133902;27;19926;-41
2021/05/15 13:30:38;;;;;;;;;;;17.00;62.60;;;;;;5137611;27;19911;-41
2021/05/15 13:33:04;;;;;;;;;;;17.00;62.50;;;;;;5142752;27;19911;-41
2021/05/15 13:35:30;;;;;;;;;;;17.00;62.50;;;;;;5134448;27;19914;-42
2021/05/15 13:37:56;;;;;;;;;;;17.00;62.50;;;;;;5132825;27;19904;-41
2021/05/15 13:40:22;;;;;;;;;;;17.10;63.30;;;;;;5138127;27;19907;-41
2021/05/15 13:42:48;;;;;;;;;;;17.10;62.60;;;;;;5133621;27;19914;-41
2021/05/15 13:45:14;;;;;;;;;;;17.10;62.50;;;;;;5140702;27;19915;-42
2021/05/15 13:47:40;;;;;;;;;;;17.10;62.50;;;;;;5135067;27;19933;-42
2021/05/15 13:50:06;;;;;;;;;;;17.10;62.50;;;;;;5133655;27;19908;-42
2021/05/15 13:52:32;;;;;;;;;;;17.20;62.60;;;;;;5134041;27;19903;-41
2021/05/15 13:54:58;;;;;;;;;;;17.20;62.60;;;;;;5132488;27;20275;-41
2021/05/15 13:57:24;;;;;;;;;;;17.20;62.50;;;;;;5137246;27;19911;-42
2021/05/15 13:59:50;;;;;;;;;;;17.20;62.60;;;;;;5136364;27;19929;-41
2021/05/15 14:02:15;;;;;;;;;;;17.20;62.50;;;;;;5137485;27;19914;-41
2021/05/15 14:04:41;;;;;;;;;;;17.30;62.70;;;;;;5139995;27;19907;-42
2021/05/15 14:07:07;;;;;;;;;;;17.30;62.90;;;;;;5138113;27;19910;-41
2021/05/15 14:09:33;;;;;;;;;;;17.30;62.70;;;;;;5137484;27;19919;-42
2021/05/15 14:11:59;;;;;;;;;;;17.40;62.80;;;;;;5137331;27;19908;-42
2021/05/15 14:14:25;;;;;;;;;;;17.40;62.80;;;;;;5136686;27;19927;-42